Time;durP1;ratioP1;P1;durP2;ratioP2;P2;SDS_P1;SDS_P2;PMS_P1;PMS_P2;Temp;Humidity;BMP_temperature;BMP_pressure;BME280_temperature;BME280_humidity;BME280_pressure;Samples;Min_cycle;Max_cycle;Signal;HPM_P1;HPM_P2
2023/11/07 08:22:30;;;;;;;5.47;2.20;;;11.40;99.90;;;;;;4742237;27;20246;-70
2023/11/07 08:24:58;;;;;;;4.37;1.97;;;11.50;99.90;;;;;;4898980;29;20551;-71
2023/11/07 08:27:25;;;;;;;4.33;1.90;;;11.60;99.90;;;;;;4899021;29;20234;-70
2023/11/07 08:29:53;;;;;;;5.30;1.57;;;11.40;99.90;;;;;;4898921;29;20210;-70
2023/11/07 08:32:20;;;;;;;4.53;1.70;;;11.30;99.90;;;;;;4893987;29;20210;-71
2023/11/07 08:34:46;;;;;;;3.43;1.70;;;11.30;99.90;;;;;;4897328;29;20214;-70
2023/11/07 08:37:15;;;;;;;5.10;1.97;;;11.30;99.90;;;;;;4888084;29;20293;-71
2023/11/07 08:39:43;;;;;;;2.47;1.60;;;11.10;99.90;;;;;;4898154;29;20787;-76
2023/11/07 08:42:10;;;;;;;3.77;1.97;;;10.90;99.90;;;;;;4898026;29;20296;-70
2023/11/07 08:44:37;;;;;;;2.97;1.40;;;10.80;99.90;;;;;;4898146;29;20207;-71
2023/11/07 08:47:04;;;;;;;3.90;1.30;;;10.80;99.90;;;;;;4898128;29;20622;-70
2023/11/07 08:49:31;;;;;;;2.97;1.20;;;10.80;99.90;;;;;;4898034;29;20206;-70
2023/11/07 08:51:58;;;;;;;4.90;2.30;;;10.90;99.90;;;;;;4898033;29;20297;-71
2023/11/07 08:54:25;;;;;;;3.33;1.93;;;10.90;99.90;;;;;;4898584;29;20610;-71
2023/11/07 08:56:53;;;;;;;4.40;1.83;;;11.00;99.90;;;;;;4898310;29;20254;-70
2023/11/07 08:59:21;;;;;;;3.10;1.20;;;11.00;99.90;;;;;;4898075;29;20233;-68
2023/11/07 09:01:49;;;;;;;3.97;1.13;;;11.00;99.90;;;;;;4898317;29;20243;-68
2023/11/07 09:04:17;;;;;;;2.60;1.30;;;10.70;99.90;;;;;;4898719;29;20214;-70
2023/11/07 09:06:44;;;;;;;3.50;1.33;;;10.50;99.90;;;;;;4898262;29;20210;-70
2023/11/07 09:09:14;;;;;;;2.60;1.40;;;10.50;99.90;;;;;;4898089;29;20322;-70
2023/11/07 09:11:41;;;;;;;1.53;0.80;;;10.40;99.90;;;;;;4898096;29;20214;-70
2023/11/07 09:14:10;;;;;;;4.50;1.50;;;10.40;99.90;;;;;;4898109;29;20685;-70
2023/11/07 09:16:37;;;;;;;2.50;1.20;;;10.40;99.90;;;;;;4898036;29;20214;-70
2023/11/07 09:19:04;;;;;;;2.05;1.00;;;10.50;99.90;;;;;;4898176;29;20241;-76
2023/11/07 09:21:32;;;;;;;1.70;0.77;;;10.50;99.90;;;;;;4897681;29;20313;-71
2023/11/07 09:23:58;;;;;;;1.50;0.80;;;10.60;99.90;;;;;;4897594;29;20618;-70
2023/11/07 09:26:25;;;;;;;0.93;0.80;;;10.70;99.90;;;;;;4897751;29;20673;-70
2023/11/07 09:28:52;;;;;;;1.00;0.67;;;10.80;99.90;;;;;;4898102;29;20717;-80
2023/11/07 09:31:21;;;;;;;2.73;0.60;;;10.80;99.90;;;;;;4897739;29;20211;-70
2023/11/07 09:33:47;;;;;;;3.37;0.50;;;10.80;99.90;;;;;;4898039;29;20266;-70
2023/11/07 09:36:15;;;;;;;1.07;0.60;;;10.90;99.90;;;;;;4897893;29;20574;-70
2023/11/07 09:38:44;;;;;;;1.83;0.43;;;10.70;99.90;;;;;;4897572;29;20277;-70
2023/11/07 09:41:11;;;;;;;1.57;0.60;;;10.60;99.90;;;;;;4897635;29;20242;-70
2023/11/07 09:43:38;;;;;;;1.03;0.70;;;10.60;99.90;;;;;;4898032;29;20217;-70
2023/11/07 09:46:07;;;;;;;2.33;0.83;;;10.50;99.90;;;;;;4897623;29;21277;-71
2023/11/07 09:48:35;;;;;;;3.60;1.10;;;10.60;99.90;;;;;;4897480;29;20729;-70
2023/11/07 09:51:05;;;;;;;1.70;0.90;;;10.60;99.90;;;;;;4897653;29;20658;-70
2023/11/07 09:53:32;;;;;;;4.63;0.90;;;10.60;99.90;;;;;;4897623;29;20254;-71
2023/11/07 09:56:00;;;;;;;2.87;0.70;;;10.70;99.90;;;;;;4897609;29;20270;-70
2023/11/07 09:58:28;;;;;;;1.30;0.60;;;10.80;99.90;;;;;;4898543;29;20241;-70
2023/11/07 10:00:57;;;;;;;2.37;0.60;;;10.80;99.90;;;;;;4901442;29;20234;-74
2023/11/07 10:03:24;;;;;;;4.50;0.70;;;10.70;99.90;;;;;;4901541;29;20582;-72
2023/11/07 10:05:53;;;;;;;1.10;0.70;;;10.80;99.90;;;;;;4901369;29;20210;-70
2023/11/07 10:08:23;;;;;;;1.20;0.70;;;11.00;99.90;;;;;;4901442;29;20234;-70
2023/11/07 10:11:07;;;;;;;1.13;0.60;;;11.20;99.90;;;;;;4901456;29;20617;-70
2023/11/07 10:13:34;;;;;;;3.17;0.60;;;11.30;99.90;;;;;;4901007;29;20266;-72
2023/11/07 10:16:06;;;;;;;1.07;0.60;;;11.50;99.90;;;;;;4901159;29;20283;-71
2023/11/07 10:18:47;;;;;;;0.90;0.40;;;11.50;99.90;;;;;;4901055;29;20223;-70
2023/11/07 10:21:16;;;;;;;1.00;0.43;;;11.50;99.90;;;;;;4900790;29;20269;-71
2023/11/07 10:23:43;;;;;;;0.63;0.40;;;11.60;99.90;;;;;;4901119;29;20210;-70
2023/11/07 10:26:15;;;;;;;2.47;0.90;;;11.50;99.90;;;;;;4900960;29;20211;-70
2023/11/07 10:28:42;;;;;;;1.50;0.47;;;11.60;99.90;;;;;;4900953;29;20238;-74
2023/11/07 10:31:20;;;;;;;0.97;0.50;;;11.50;99.90;;;;;;4900742;29;20214;-73
2023/11/07 10:33:47;;;;;;;2.07;0.87;;;11.40;99.90;;;;;;4900656;29;20610;-70
2023/11/07 10:36:16;;;;;;;2.40;0.67;;;11.40;99.90;;;;;;4900597;29;20242;-71
2023/11/07 10:38:43;;;;;;;4.23;0.80;;;11.40;99.90;;;;;;4900954;29;20334;-70
2023/11/07 10:41:27;;;;;;;1.00;0.70;;;11.50;99.90;;;;;;4900720;29;20321;-70
2023/11/07 10:43:55;;;;;;;1.17;0.47;;;11.50;99.90;;;;;;4900318;29;20289;-76
2023/11/07 10:46:22;;;;;;;1.60;0.60;;;11.40;99.90;;;;;;4900231;29;20214;-70
2023/11/07 10:48:50;;;;;;;1.80;0.90;;;11.50;99.90;;;;;;4900269;29;20226;-71
2023/11/07 10:51:19;;;;;;;4.37;0.80;;;11.60;99.90;;;;;;4900399;29;20301;-70
2023/11/07 10:53:46;;;;;;;1.10;0.63;;;11.40;99.90;;;;;;4900454;29;20232;-70
2023/11/07 10:56:14;;;;;;;1.03;0.70;;;11.60;99.90;;;;;;4900557;29;20211;-79
2023/11/07 10:58:43;;;;;;;1.30;0.70;;;11.60;99.90;;;;;;4900254;29;20226;-67
2023/11/07 11:01:11;;;;;;;3.37;0.53;;;11.80;99.90;;;;;;4900227;29;20578;-71
2023/11/07 11:03:41;;;;;;;1.30;0.60;;;11.70;99.90;;;;;;4900456;29;20266;-71
2023/11/07 11:06:14;;;;;;;0.50;0.40;;;11.80;99.90;;;;;;4899687;29;20543;-70
2023/11/07 11:08:45;;;;;;;3.40;1.23;;;11.70;99.90;;;;;;4899794;29;20282;-71
2023/11/07 11:11:14;;;;;;;0.70;0.40;;;11.60;99.90;;;;;;4900152;29;20210;-70
2023/11/07 11:13:42;;;;;;;0.73;0.40;;;11.50;99.90;;;;;;4900529;29;20253;-70
2023/11/07 11:16:10;;;;;;;1.17;0.47;;;11.50;99.90;;;;;;4900053;29;20220;-78
2023/11/07 11:18:45;;;;;;;1.70;0.60;;;11.50;99.90;;;;;;4899852;29;20235;-70
2023/11/07 11:21:16;;;;;;;1.00;0.50;;;11.50;99.90;;;;;;4899804;29;20244;-71
2023/11/07 11:23:53;;;;;;;0.90;0.43;;;11.70;99.90;;;;;;4899703;29;20207;-70
2023/11/07 11:26:29;;;;;;;2.00;0.60;;;11.70;99.90;;;;;;4900009;29;20221;-70
2023/11/07 11:28:56;;;;;;;3.57;0.70;;;11.70;99.90;;;;;;4900017;29;20593;-70
2023/11/07 11:31:26;;;;;;;1.63;0.60;;;11.70;99.90;;;;;;4899712;29;20297;-70
2023/11/07 11:34:21;;;;;;;1.90;0.50;;;11.60;99.90;;;;;;4899847;29;20270;-70
2023/11/07 11:36:53;;;;;;;1.37;0.60;;;11.70;99.90;;;;;;4899554;29;20225;-70
2023/11/07 11:39:47;;;;;;;2.20;0.87;;;11.80;99.90;;;;;;4899704;29;20230;-70
2023/11/07 11:42:14;;;;;;;1.03;0.50;;;11.80;99.90;;;;;;4899741;29;20234;-69
2023/11/07 11:44:41;;;;;;;2.23;0.80;;;11.70;99.90;;;;;;4899503;29;20215;-70
2023/11/07 11:47:09;;;;;;;1.90;1.07;;;11.70;99.90;;;;;;4899521;29;20210;-69
2023/11/07 11:49:42;;;;;;;2.20;0.87;;;11.90;99.90;;;;;;4899507;29;20214;-70
2023/11/07 11:52:31;;;;;;;2.67;0.93;;;11.90;99.90;;;;;;4899057;29;20215;-70
2023/11/07 11:55:04;;;;;;;2.73;0.73;;;12.00;99.90;;;;;;4897993;29;20222;-69
2023/11/07 11:57:31;;;;;;;1.90;0.60;;;12.00;99.90;;;;;;4898598;29;20563;-70
2023/11/07 11:59:59;;;;;;;2.50;0.50;;;12.10;99.90;;;;;;4898771;29;20214;-70
2023/11/07 12:02:39;;;;;;;1.40;0.70;;;12.10;99.90;;;;;;4899230;29;20331;-70
2023/11/07 12:05:21;;;;;;;2.73;0.80;;;11.90;99.90;;;;;;4898531;29;20214;-70
2023/11/07 12:07:48;;;;;;;0.87;0.57;;;11.90;99.90;;;;;;4898248;29;20264;-70
2023/11/07 12:10:20;;;;;;;1.53;0.60;;;12.00;99.90;;;;;;4898881;29;20214;-70
2023/11/07 12:12:57;;;;;;;2.30;0.60;;;12.00;99.90;;;;;;4898833;29;20575;-71
2023/11/07 12:15:27;;;;;;;2.53;0.80;;;12.00;99.90;;;;;;4898629;29;20284;-69
2023/11/07 12:17:53;;;;;;;1.93;0.73;;;11.80;99.90;;;;;;4898081;29;20234;-70
2023/11/07 12:20:20;;;;;;;1.93;0.90;;;11.50;99.90;;;;;;4897774;29;20805;-71
2023/11/07 12:22:49;;;;;;;4.40;0.90;;;11.50;99.90;;;;;;4897690;29;20309;-70
2023/11/07 12:25:19;;;;;;;2.27;0.80;;;11.60;99.90;;;;;;4898629;29;20215;-70
2023/11/07 12:28:02;;;;;;;1.73;0.50;;;11.60;99.90;;;;;;4898183;29;20218;-77
2023/11/07 12:30:29;;;;;;;2.27;0.60;;;11.80;99.90;;;;;;4896121;29;20263;-69
2023/11/07 12:33:00;;;;;;;1.40;0.67;;;11.90;99.90;;;;;;4898172;29;20209;-71
2023/11/07 12:35:29;;;;;;;1.47;0.60;;;12.10;99.90;;;;;;4898131;29;20214;-70
2023/11/07 12:38:00;;;;;;;1.63;0.67;;;12.40;99.90;;;;;;4892081;29;20231;-70
2023/11/07 12:40:28;;;;;;;1.07;0.60;;;12.60;99.90;;;;;;4887689;29;20241;-68
2023/11/07 12:42:56;;;;;;;1.53;0.80;;;12.80;99.90;;;;;;4891153;29;20298;-76
2023/11/07 12:45:28;;;;;;;1.17;0.47;;;12.90;99.90;;;;;;4894647;29;20206;-77
2023/11/07 12:47:59;;;;;;;0.40;0.40;;;12.80;99.90;;;;;;4898025;29;20222;-70
2023/11/07 12:50:32;;;;;;;1.03;0.60;;;12.80;99.90;;;;;;4898317;29;20249;-70
2023/11/07 12:53:00;;;;;;;2.67;0.70;;;12.50;99.90;;;;;;4898039;29;20209;-70
2023/11/07 12:55:30;;;;;;;1.33;0.50;;;12.40;99.90;;;;;;4897085;29;20253;-73
2023/11/07 12:57:59;;;;;;;0.90;0.50;;;12.50;99.90;;;;;;4886197;29;20226;-71
2023/11/07 13:00:26;;;;;;;1.83;0.60;;;12.50;99.90;;;;;;4898426;29;20210;-77
2023/11/07 13:02:57;;;;;;;1.80;0.80;;;12.40;99.90;;;;;;4897995;29;20281;-72
2023/11/07 13:05:25;;;;;;;2.60;0.93;;;12.50;99.90;;;;;;4897791;29;20210;-70
2023/11/07 13:07:52;;;;;;;1.73;0.60;;;12.50;99.90;;;;;;4897351;29;20226;-67
2023/11/07 13:10:21;;;;;;;1.10;0.50;;;12.50;99.90;;;;;;4897554;29;20684;-74
2023/11/07 13:12:50;;;;;;;1.30;0.70;;;12.60;99.90;;;;;;4897734;29;20233;-68
2023/11/07 13:15:17;;;;;;;2.20;0.57;;;12.50;99.90;;;;;;4897762;29;20214;-68
2023/11/07 13:17:46;;;;;;;0.90;0.50;;;12.40;99.90;;;;;;4897396;29;20697;-69
2023/11/07 13:20:13;;;;;;;3.63;0.50;;;12.40;99.90;;;;;;4897462;29;20218;-69
2023/11/07 13:22:41;;;;;;;0.37;0.30;;;12.50;99.90;;;;;;4896874;29;20248;-68
2023/11/07 13:25:09;;;;;;;0.90;0.70;;;12.50;99.90;;;;;;4897527;29;20246;-69
2023/11/07 13:27:38;;;;;;;1.47;0.40;;;12.40;99.90;;;;;;4896826;29;20254;-69
2023/11/07 13:30:13;;;;;;;1.23;0.60;;;12.30;99.90;;;;;;4897595;29;20615;-69
2023/11/07 13:32:40;;;;;;;3.83;0.40;;;12.30;99.90;;;;;;4892397;29;20690;-72
2023/11/07 13:35:08;;;;;;;0.93;0.40;;;12.30;99.90;;;;;;4884239;29;20780;-68
2023/11/07 13:37:36;;;;;;;2.93;0.30;;;12.20;99.90;;;;;;4895979;29;20237;-69
2023/11/07 13:40:05;;;;;;;1.17;0.40;;;12.20;99.90;;;;;;4879269;29;20258;-70
2023/11/07 13:42:33;;;;;;;1.13;0.40;;;12.20;99.90;;;;;;4878610;29;20711;-69
2023/11/07 13:45:00;;;;;;;1.30;0.50;;;12.20;99.90;;;;;;4877784;29;20307;-69
2023/11/07 13:47:28;;;;;;;1.10;0.47;;;12.40;99.90;;;;;;4880176;29;20628;-70
2023/11/07 13:49:55;;;;;;;1.00;0.33;;;12.50;99.90;;;;;;4896789;29;20569;-72
2023/11/07 13:52:23;;;;;;;2.87;0.50;;;12.50;99.90;;;;;;4895932;29;20210;-73
2023/11/07 13:54:50;;;;;;;1.07;0.30;;;12.30;99.90;;;;;;4896732;29;20210;-72
2023/11/07 13:57:17;;;;;;;1.03;0.43;;;12.30;99.90;;;;;;4896867;29;20206;-71
2023/11/07 13:59:44;;;;;;;1.97;0.50;;;12.20;99.90;;;;;;4896982;29;20293;-69
2023/11/07 14:02:11;;;;;;;0.73;0.47;;;12.10;99.90;;;;;;4896568;29;20286;-73
2023/11/07 14:04:39;;;;;;;1.73;0.90;;;12.10;99.90;;;;;;4897034;29;20206;-73
2023/11/07 14:07:07;;;;;;;1.10;0.83;;;12.30;99.90;;;;;;4897047;29;20237;-70
2023/11/07 14:09:34;;;;;;;0.93;0.30;;;12.30;99.90;;;;;;4897007;29;20210;-73
2023/11/07 14:12:02;;;;;;;0.77;0.50;;;12.20;99.90;;;;;;4897139;29;20206;-72
2023/11/07 14:14:29;;;;;;;0.80;0.43;;;12.30;99.90;;;;;;4897308;29;20274;-71
2023/11/07 14:16:56;;;;;;;0.63;0.40;;;12.30;99.90;;;;;;4897079;29;20207;-69
2023/11/07 14:19:22;;;;;;;0.67;0.30;;;12.30;99.90;;;;;;4896666;29;20234;-71
2023/11/07 14:21:51;;;;;;;0.40;0.30;;;12.10;99.90;;;;;;4897268;29;20245;-71
2023/11/07 14:24:18;;;;;;;0.90;0.70;;;12.20;99.90;;;;;;4897120;29;20316;-69
2023/11/07 14:26:45;;;;;;;1.47;0.40;;;12.10;99.90;;;;;;4897421;29;20245;-72
2023/11/07 14:29:12;;;;;;;1.50;0.40;;;12.00;99.90;;;;;;4896796;29;20241;-70
2023/11/07 14:31:40;;;;;;;3.57;0.40;;;11.90;99.90;;;;;;4889198;29;20215;-73
2023/11/07 14:34:07;;;;;;;1.70;0.30;;;11.90;99.90;;;;;;4880388;29;20210;-70
2023/11/07 14:36:35;;;;;;;0.97;0.33;;;11.90;99.90;;;;;;4885378;29;20214;-70
2023/11/07 14:39:05;;;;;;;1.07;0.50;;;11.90;99.90;;;;;;4896700;29;20236;-73
2023/11/07 14:41:32;;;;;;;0.40;0.30;;;11.90;99.90;;;;;;4896494;29;20238;-72
2023/11/07 14:43:59;;;;;;;1.30;0.50;;;11.80;99.90;;;;;;4897247;29;20210;-72
2023/11/07 14:46:26;;;;;;;1.27;0.30;;;11.80;99.90;;;;;;4900249;29;20585;-69
2023/11/07 14:48:55;;;;;;;0.90;0.30;;;11.70;99.90;;;;;;4899929;29;20233;-69
2023/11/07 14:51:22;;;;;;;0.50;0.23;;;11.60;99.90;;;;;;4899799;29;20420;-70
2023/11/07 14:53:51;;;;;;;1.00;0.30;;;11.60;99.90;;;;;;4900254;29;20696;-73
2023/11/07 14:56:19;;;;;;;2.67;0.40;;;11.60;99.90;;;;;;4900147;29;20282;-71
2023/11/07 14:58:46;;;;;;;0.47;0.30;;;11.70;99.90;;;;;;4900373;29;20286;-70
2023/11/07 15:01:14;;;;;;;0.83;0.23;;;11.70;99.90;;;;;;4900047;29;20230;-74
2023/11/07 15:03:41;;;;;;;0.57;0.43;;;11.60;99.90;;;;;;4899890;29;20210;-70
2023/11/07 15:06:11;;;;;;;0.33;0.20;;;11.60;99.90;;;;;;4900108;29;20214;-73
2023/11/07 15:08:38;;;;;;;1.43;0.40;;;11.60;99.90;;;;;;4899799;29;20594;-70
2023/11/07 15:11:05;;;;;;;0.97;0.30;;;11.50;99.90;;;;;;4900274;29;20222;-70
2023/11/07 15:13:35;;;;;;;0.87;0.50;;;11.40;99.90;;;;;;4900148;29;20218;-70
2023/11/07 15:16:02;;;;;;;0.63;0.20;;;11.30;99.90;;;;;;4899858;29;20210;-69
2023/11/07 15:18:30;;;;;;;0.70;0.30;;;11.20;99.90;;;;;;4899990;29;20290;-71
2023/11/07 15:20:57;;;;;;;0.87;0.20;;;11.10;99.90;;;;;;4899581;29;20214;-70
2023/11/07 15:23:25;;;;;;;0.30;0.20;;;11.00;99.90;;;;;;4899721;29;20217;-70
2023/11/07 15:25:51;;;;;;;2.70;0.57;;;10.90;99.90;;;;;;4899978;29;20237;-71
2023/11/07 15:28:19;;;;;;;0.57;0.23;;;10.70;99.90;;;;;;4900120;29;20226;-70
2023/11/07 15:30:48;;;;;;;0.40;0.30;;;10.60;99.90;;;;;;4899615;29;20670;-72
2023/11/07 15:33:15;;;;;;;0.87;0.30;;;10.60;99.90;;;;;;4899536;29;20214;-69
2023/11/07 15:35:42;;;;;;;1.53;0.27;;;10.60;99.90;;;;;;4899375;29;20214;-73
2023/11/07 15:38:10;;;;;;;0.97;0.30;;;10.60;99.90;;;;;;4899452;29;20238;-71
2023/11/07 15:40:39;;;;;;;1.20;0.30;;;10.60;99.90;;;;;;4899897;29;20210;-70
2023/11/07 15:43:06;;;;;;;2.07;0.30;;;10.50;99.90;;;;;;4899553;29;20241;-71
2023/11/07 15:45:33;;;;;;;1.03;0.43;;;10.50;99.90;;;;;;4899462;29;20206;-72
2023/11/07 15:48:06;;;;;;;1.90;0.60;;;10.50;99.90;;;;;;4899312;29;20638;-72
2023/11/07 15:50:34;;;;;;;3.00;0.43;;;10.40;99.90;;;;;;4899456;29;20206;-72
2023/11/07 15:53:03;;;;;;;0.37;0.30;;;10.40;99.90;;;;;;4899513;29;20670;-71
2023/11/07 15:55:30;;;;;;;0.47;0.20;;;10.30;99.90;;;;;;4899038;29;20214;-70
2023/11/07 15:57:57;;;;;;;2.83;0.50;;;10.20;99.90;;;;;;4898838;29;20317;-71
2023/11/07 16:00:26;;;;;;;4.90;4.50;;;10.10;99.90;;;;;;4899353;29;20206;-72
2023/11/07 16:02:52;;;;;;;0.97;0.53;;;10.10;99.90;;;;;;4899136;29;20329;-69
2023/11/07 16:05:24;;;;;;;0.50;0.40;;;10.00;99.90;;;;;;4899043;29;20241;-71
2023/11/07 16:07:51;;;;;;;2.43;0.63;;;10.00;99.90;;;;;;4899159;29;20227;-69
2023/11/07 16:10:17;;;;;;;1.07;0.57;;;9.90;99.90;;;;;;4898977;29;20665;-69
2023/11/07 16:12:45;;;;;;;0.47;0.30;;;9.90;99.90;;;;;;4898970;29;20227;-71
2023/11/07 16:15:14;;;;;;;1.13;0.33;;;9.80;99.90;;;;;;4898893;29;20716;-70
2023/11/07 16:17:46;;;;;;;0.40;0.40;;;9.80;99.90;;;;;;4898895;29;20245;-71
2023/11/07 16:20:14;;;;;;;2.93;0.77;;;9.80;99.90;;;;;;4899099;29;20214;-73
2023/11/07 16:22:42;;;;;;;1.80;0.60;;;9.80;99.90;;;;;;4898339;29;20252;-68
2023/11/07 16:25:09;;;;;;;0.60;0.40;;;9.70;99.90;;;;;;4898727;29;20709;-74
2023/11/07 16:27:36;;;;;;;1.33;0.60;;;9.60;99.90;;;;;;4898598;29;20265;-69
2023/11/07 16:30:03;;;;;;;1.70;0.50;;;9.70;99.90;;;;;;4898873;29;20217;-69
2023/11/07 16:32:31;;;;;;;1.83;0.30;;;9.60;99.90;;;;;;4898774;29;20214;-69
2023/11/07 16:34:58;;;;;;;1.80;0.50;;;9.50;99.90;;;;;;4898625;29;20354;-74
2023/11/07 16:37:25;;;;;;;1.60;0.47;;;9.50;99.90;;;;;;4898188;29;20709;-69
2023/11/07 16:39:54;;;;;;;1.03;0.50;;;9.50;99.90;;;;;;4898279;29;20270;-69
2023/11/07 16:42:21;;;;;;;2.97;0.60;;;9.50;99.90;;;;;;4898179;29;20238;-69
2023/11/07 16:44:48;;;;;;;3.13;0.90;;;9.50;99.90;;;;;;4899397;29;20363;-74
2023/11/07 16:47:21;;;;;;;2.33;1.03;;;9.50;99.90;;;;;;4898266;29;20622;-72
2023/11/07 16:49:49;;;;;;;2.10;0.73;;;9.40;99.90;;;;;;4898189;29;20217;-69
2023/11/07 16:52:16;;;;;;;4.33;0.80;;;9.40;99.90;;;;;;4898306;29;20206;-71
2023/11/07 16:54:43;;;;;;;1.83;0.57;;;9.30;99.90;;;;;;4898228;29;20210;-70
2023/11/07 16:57:12;;;;;;;3.13;0.60;;;9.30;99.90;;;;;;4898124;29;20213;-71
2023/11/07 16:59:41;;;;;;;4.10;1.70;;;9.30;99.90;;;;;;4898499;29;20242;-70
2023/11/07 17:02:09;;;;;;;1.73;1.47;;;9.30;99.90;;;;;;4898109;29;20642;-69
2023/11/07 17:04:36;;;;;;;0.70;0.50;;;9.20;99.90;;;;;;4897948;29;20297;-71
2023/11/07 17:07:03;;;;;;;1.43;0.67;;;9.20;99.90;;;;;;4897647;29;20217;-72
2023/11/07 17:09:30;;;;;;;2.13;0.70;;;9.10;99.90;;;;;;4897706;29;20212;-73
2023/11/07 17:11:58;;;;;;;1.20;0.50;;;9.10;99.90;;;;;;4898186;29;20211;-71
2023/11/07 17:14:26;;;;;;;2.43;0.90;;;9.10;99.90;;;;;;4898286;29;20266;-69
2023/11/07 17:16:53;;;;;;;3.97;0.50;;;9.10;99.90;;;;;;4898164;29;20642;-70
2023/11/07 17:19:20;;;;;;;3.03;0.80;;;9.10;99.90;;;;;;4897888;29;20317;-70
2023/11/07 17:21:47;;;;;;;1.87;0.80;;;9.00;99.90;;;;;;4897758;29;20245;-74
2023/11/07 17:24:15;;;;;;;3.17;0.90;;;9.00;99.90;;;;;;4897737;29;20216;-69
2023/11/07 17:26:42;;;;;;;4.63;1.07;;;8.90;99.90;;;;;;4897909;29;20225;-70
2023/11/07 17:29:10;;;;;;;2.57;0.60;;;9.00;99.90;;;;;;4897733;29;20709;-70
2023/11/07 17:31:38;;;;;;;1.30;0.40;;;8.90;99.90;;;;;;4897953;29;20210;-70
2023/11/07 17:34:06;;;;;;;1.93;1.00;;;9.00;99.90;;;;;;4897338;29;20215;-69
2023/11/07 17:36:34;;;;;;;4.23;1.20;;;8.90;99.90;;;;;;4897109;29;20206;-71
2023/11/07 17:39:01;;;;;;;4.73;1.27;;;8.90;99.90;;;;;;4897262;29;20264;-69
2023/11/07 17:41:28;;;;;;;5.37;1.67;;;8.90;99.90;;;;;;4897976;29;20213;-75
2023/11/07 17:43:55;;;;;;;3.03;1.13;;;8.90;99.90;;;;;;4897584;29;20736;-70
2023/11/07 17:46:22;;;;;;;3.53;0.97;;;8.90;99.90;;;;;;4897527;29;20210;-77
2023/11/07 17:48:51;;;;;;;1.80;0.80;;;8.90;99.90;;;;;;4897422;29;20234;-70
2023/11/07 17:51:22;;;;;;;1.47;0.67;;;8.90;99.90;;;;;;4897193;29;20301;-69
2023/11/07 17:53:51;;;;;;;2.33;0.90;;;8.90;99.90;;;;;;4897581;29;20282;-77
2023/11/07 17:56:19;;;;;;;2.23;1.27;;;8.80;99.90;;;;;;4897533;29;20602;-70
2023/11/07 17:58:46;;;;;;;1.77;0.70;;;8.80;99.90;;;;;;4897237;29;20232;-70
2023/11/07 18:01:14;;;;;;;1.77;0.77;;;8.80;99.90;;;;;;4897795;29;20301;-69
2023/11/07 18:03:41;;;;;;;1.80;0.57;;;8.90;99.90;;;;;;4897287;29;20238;-70
2023/11/07 18:06:10;;;;;;;2.83;1.17;;;8.90;99.90;;;;;;4897771;29;20237;-70
2023/11/07 18:08:37;;;;;;;2.20;0.97;;;8.80;99.90;;;;;;4897254;29;20234;-69
2023/11/07 18:11:04;;;;;;;2.47;0.80;;;8.80;99.90;;;;;;4897255;29;20249;-69
2023/11/07 18:13:31;;;;;;;3.27;0.70;;;8.80;99.90;;;;;;4897441;29;20210;-69
2023/11/07 18:15:58;;;;;;;4.43;0.87;;;8.80;99.90;;;;;;4888790;29;20226;-71
2023/11/07 18:18:25;;;;;;;1.53;0.87;;;8.80;99.90;;;;;;4878264;29;20239;-69
2023/11/07 18:20:53;;;;;;;2.40;1.40;;;8.80;99.90;;;;;;4899009;29;20206;-74
2023/11/07 18:23:21;;;;;;;2.13;1.20;;;8.80;99.90;;;;;;4900745;29;20601;-69
2023/11/07 18:25:48;;;;;;;3.50;1.30;;;8.80;99.90;;;;;;4891727;29;20241;-69
2023/11/07 18:28:15;;;;;;;3.50;1.20;;;8.80;99.90;;;;;;4894257;29;20744;-69
2023/11/07 18:30:43;;;;;;;4.03;1.53;;;8.90;99.90;;;;;;4899543;29;20246;-70
2023/11/07 18:33:11;;;;;;;3.73;1.00;;;8.80;99.90;;;;;;4899320;29;20217;-69
2023/11/07 18:35:37;;;;;;;6.03;1.30;;;8.80;99.90;;;;;;4895132;29;20209;-70
2023/11/07 18:38:04;;;;;;;2.13;1.20;;;8.80;99.90;;;;;;4885355;29;20656;-70
2023/11/07 18:40:33;;;;;;;2.70;0.73;;;8.80;99.90;;;;;;4899901;29;20291;-69
2023/11/07 18:43:00;;;;;;;4.83;1.00;;;8.80;99.90;;;;;;4899239;29;20294;-69
2023/11/07 18:45:26;;;;;;;3.60;1.00;;;8.80;99.90;;;;;;4899024;29;20206;-69
2023/11/07 18:47:53;;;;;;;2.80;1.00;;;8.80;99.90;;;;;;4899545;29;20642;-70
2023/11/07 18:50:20;;;;;;;2.30;0.90;;;8.80;99.90;;;;;;4900165;29;20217;-68
2023/11/07 18:52:48;;;;;;;3.47;1.30;;;8.90;99.90;;;;;;4899404;29;20210;-68
2023/11/07 18:55:15;;;;;;;3.97;1.13;;;8.80;99.90;;;;;;4899410;29;20313;-69
2023/11/07 18:57:43;;;;;;;3.97;1.33;;;8.90;99.90;;;;;;4898992;29;20234;-69
2023/11/07 19:00:12;;;;;;;3.23;1.40;;;8.80;99.90;;;;;;4899406;29;20566;-76
2023/11/07 19:02:38;;;;;;;2.27;1.10;;;8.80;99.90;;;;;;4899489;29;20321;-73
2023/11/07 19:05:06;;;;;;;1.53;0.70;;;8.70;99.90;;;;;;4897604;29;20210;-77
2023/11/07 19:07:33;;;;;;;2.27;0.97;;;8.70;99.90;;;;;;4889168;29;20227;-74
2023/11/07 19:10:00;;;;;;;4.50;1.17;;;8.70;99.90;;;;;;4899620;29;20202;-69
2023/11/07 19:12:28;;;;;;;1.20;0.73;;;8.80;99.90;;;;;;4893421;29;20675;-73
2023/11/07 19:14:56;;;;;;;2.43;0.90;;;8.70;99.90;;;;;;4895912;29;20206;-71
2023/11/07 19:17:23;;;;;;;2.60;0.60;;;8.70;99.90;;;;;;4898240;29;20570;-72
2023/11/07 19:19:52;;;;;;;3.50;0.87;;;8.70;99.90;;;;;;4898784;29;20258;-73
2023/11/07 19:22:19;;;;;;;0.97;0.60;;;8.70;99.90;;;;;;4894092;29;20226;-72
2023/11/07 19:24:46;;;;;;;2.20;0.70;;;8.80;99.90;;;;;;4897400;29;20685;-71
2023/11/07 19:27:16;;;;;;;1.93;0.80;;;8.70;99.90;;;;;;4898610;29;20215;-73
2023/11/07 19:29:43;;;;;;;2.57;0.60;;;8.80;99.90;;;;;;4898994;29;20544;-75
2023/11/07 19:32:12;;;;;;;1.63;0.70;;;8.70;99.90;;;;;;4898079;29;20210;-76
2023/11/07 19:34:38;;;;;;;1.37;0.57;;;8.70;99.90;;;;;;4898604;29;20218;-73
2023/11/07 19:37:06;;;;;;;2.07;0.60;;;8.70;99.90;;;;;;4898759;29;20218;-69
2023/11/07 19:39:34;;;;;;;2.20;0.87;;;8.70;99.90;;;;;;4896493;29;20620;-70
2023/11/07 19:42:03;;;;;;;3.57;0.70;;;8.70;99.90;;;;;;4888518;29;20212;-77
2023/11/07 19:44:31;;;;;;;1.60;0.60;;;8.60;99.90;;;;;;4896044;29;20247;-68
2023/11/07 19:46:58;;;;;;;3.80;1.00;;;8.60;99.90;;;;;;4893594;29;20214;-74
2023/11/07 19:49:27;;;;;;;2.07;1.03;;;8.60;99.90;;;;;;4898039;29;20709;-71
2023/11/07 19:51:55;;;;;;;3.63;1.00;;;8.60;99.90;;;;;;4898421;29;20574;-70
2023/11/07 19:54:22;;;;;;;1.77;0.93;;;8.60;99.90;;;;;;4899237;29;20627;-70
2023/11/07 19:56:48;;;;;;;3.43;1.03;;;8.60;99.90;;;;;;4896435;29;20298;-69
2023/11/07 19:59:17;;;;;;;4.40;1.43;;;8.60;99.90;;;;;;4890618;29;20313;-77
2023/11/07 20:01:43;;;;;;;1.03;0.67;;;8.50;99.90;;;;;;4897510;29;20249;-69
2023/11/07 20:04:10;;;;;;;2.67;0.93;;;8.50;99.90;;;;;;4898112;29;20325;-71
2023/11/07 20:06:39;;;;;;;7.87;1.20;;;8.50;99.90;;;;;;4896470;29;20213;-69
2023/11/07 20:09:06;;;;;;;1.20;0.87;;;8.50;99.90;;;;;;4897851;29;20262;-75
2023/11/07 20:11:34;;;;;;;3.10;1.00;;;8.50;99.90;;;;;;4897876;29;20203;-70
2023/11/07 20:14:02;;;;;;;1.43;0.70;;;8.50;99.90;;;;;;4898416;29;20207;-69
2023/11/07 20:16:29;;;;;;;1.27;0.70;;;8.50;99.90;;;;;;4897941;29;20211;-69
2023/11/07 20:18:56;;;;;;;1.10;0.53;;;8.50;99.90;;;;;;4898065;29;20234;-72
2023/11/07 20:21:23;;;;;;;3.77;0.80;;;8.40;99.90;;;;;;4896832;29;20695;-69
2023/11/07 20:23:53;;;;;;;2.67;0.87;;;8.40;99.90;;;;;;4897839;29;20294;-73
2023/11/07 20:26:20;;;;;;;1.50;0.70;;;8.40;99.90;;;;;;4897532;29;20270;-69
2023/11/07 20:28:49;;;;;;;1.43;0.80;;;8.40;99.90;;;;;;4898072;29;20234;-72
2023/11/07 20:31:16;;;;;;;2.13;0.90;;;8.40;99.90;;;;;;4893445;29;20742;-71
2023/11/07 20:33:44;;;;;;;1.37;0.90;;;8.40;99.90;;;;;;4889652;29;20666;-71
2023/11/07 20:36:15;;;;;;;2.17;0.83;;;8.50;99.90;;;;;;4897152;29;20262;-69
2023/11/07 20:38:42;;;;;;;2.33;0.50;;;8.50;99.90;;;;;;4897974;29;20262;-70
2023/11/07 20:41:14;;;;;;;1.50;1.10;;;8.40;99.90;;;;;;4897588;29;20261;-71
2023/11/07 20:43:42;;;;;;;2.23;0.90;;;8.40;99.90;;;;;;4897700;29;20333;-72
2023/11/07 20:46:10;;;;;;;3.17;0.80;;;8.40;99.90;;;;;;4896775;29;20754;-70
2023/11/07 20:48:37;;;;;;;2.90;0.97;;;8.40;99.90;;;;;;4897497;29;20230;-70
2023/11/07 20:51:06;;;;;;;4.43;0.93;;;8.40;99.90;;;;;;4886018;29;20214;-72
2023/11/07 20:53:34;;;;;;;4.03;1.27;;;8.40;99.90;;;;;;4897207;29;20206;-68
2023/11/07 20:56:01;;;;;;;5.17;1.03;;;8.40;99.90;;;;;;4897824;29;20214;-69
2023/11/07 20:58:29;;;;;;;2.43;0.70;;;8.40;99.90;;;;;;4897570;29;20278;-69
2023/11/07 21:00:57;;;;;;;1.23;0.83;;;8.40;99.90;;;;;;4897569;29;20254;-71
2023/11/07 21:03:24;;;;;;;0.90;0.63;;;8.40;99.90;;;;;;4897041;29;20238;-69
2023/11/07 21:05:51;;;;;;;0.80;0.47;;;8.40;99.90;;;;;;4888867;29;20215;-69
2023/11/07 21:08:18;;;;;;;0.87;0.70;;;8.50;99.90;;;;;;4892580;29;20508;-72
2023/11/07 21:10:46;;;;;;;1.27;0.67;;;8.50;99.90;;;;;;4897376;29;20306;-69
2023/11/07 21:13:14;;;;;;;2.67;0.63;;;8.50;99.90;;;;;;4896653;29;20717;-72
2023/11/07 21:15:42;;;;;;;0.83;0.40;;;8.50;99.90;;;;;;4897259;29;20631;-75
2023/11/07 21:18:09;;;;;;;4.07;0.90;;;8.50;99.90;;;;;;4896913;29;20309;-69